Time;durP1;ratioP1;P1;durP2;ratioP2;P2;SDS_P1;SDS_P2;PMS_P1;PMS_P2;Temp;Humidity;BMP_temperature;BMP_pressure;BME280_temperature;BME280_humidity;BME280_pressure;Samples;Min_cycle;Max_cycle;Signal;HPM_P1;HPM_P2
2022/08/10 00:00:19;;;;;;;0.20;0.10;;;;;;;;;;6117039;23;20009;-84
2022/08/10 00:02:11;;;;;;;0.20;0.10;;;;;;;;;;6141429;23;20014;-83
2022/08/10 00:04:37;;;;;;;0.20;0.10;;;;;;;;;;6093372;23;20056;-84
2022/08/10 00:07:03;;;;;;;0.20;0.10;;;;;;;;;;6117866;23;20025;-84
2022/08/10 00:09:29;;;;;;;0.20;0.13;;;;;;;;;;6118204;23;20017;-84
2022/08/10 00:11:55;;;;;;;0.20;0.10;;;;;;;;;;6118112;23;20021;-86
2022/08/10 00:14:21;;;;;;;0.20;0.10;;;;;;;;;;6116749;23;20021;-84
2022/08/10 00:16:47;;;;;;;0.20;0.10;;;;;;;;;;6117562;23;20013;-84
2022/08/10 00:19:13;;;;;;;0.20;0.10;;;;;;;;;;6117174;23;20350;-84
2022/08/10 00:21:39;;;;;;;0.20;0.10;;;;;;;;;;6091689;23;20354;-84
2022/08/10 00:24:06;;;;;;;0.20;0.10;;;;;;;;;;6141291;23;20214;-85
2022/08/10 00:26:32;;;;;;;0.20;0.10;;;;;;;;;;6141809;23;20022;-84
2022/08/10 00:28:58;;;;;;;0.20;0.10;;;;;;;;;;6141378;23;20066;-84
2022/08/10 00:31:24;;;;;;;0.20;0.10;;;;;;;;;;6117054;23;20022;-84
2022/08/10 00:33:50;;;;;;;0.20;0.10;;;;;;;;;;6141424;23;20025;-86
2022/08/10 00:36:16;;;;;;;0.20;0.10;;;;;;;;;;6117656;23;20097;-87
2022/08/10 00:38:42;;;;;;;0.20;0.10;;;;;;;;;;6141609;23;20125;-83
2022/08/10 00:41:08;;;;;;;0.20;0.10;;;;;;;;;;6141268;23;20088;-84
2022/08/10 00:43:34;;;;;;;0.20;0.10;;;;;;;;;;6092798;23;20400;-83
2022/08/10 00:46:00;;;;;;;0.20;0.10;;;;;;;;;;6089369;23;20356;-86
2022/08/10 00:48:30;;;;;;;0.20;0.10;;;;;;;;;;6140114;23;20021;-85
2022/08/10 00:50:57;;;;;;;0.20;0.10;;;;;;;;;;6115066;23;20323;-83
2022/08/10 00:53:25;;;;;;;0.20;0.10;;;;;;;;;;6117304;23;20018;-85
2022/08/10 00:55:51;;;;;;;0.20;0.10;;;;;;;;;;6116824;23;20014;-85
2022/08/10 00:58:18;;;;;;;4.70;0.20;;;;;;;;;;6117158;23;20124;-85
2022/08/10 01:00:46;;;;;;;0.20;0.10;;;;;;;;;;6117101;23;20069;-83
2022/08/10 01:03:12;;;;;;;0.20;0.10;;;;;;;;;;6093317;23;20017;-84
2022/08/10 01:05:42;;;;;;;0.20;0.10;;;;;;;;;;6119991;23;20466;-84
2022/08/10 01:08:14;;;;;;;0.20;0.10;;;;;;;;;;6140807;23;20080;-84
2022/08/10 01:10:43;;;;;;;0.20;0.10;;;;;;;;;;6141974;23;20096;-84
2022/08/10 01:13:12;;;;;;;0.20;0.10;;;;;;;;;;6141336;23;20029;-84
2022/08/10 01:15:47;;;;;;;0.20;0.10;;;;;;;;;;6141702;23;20010;-84
2022/08/10 01:18:32;;;;;;;0.20;0.10;;;;;;;;;;6116552;23;20057;-84
2022/08/10 01:21:09;;;;;;;0.20;0.10;;;;;;;;;;6140528;23;20017;-83
2022/08/10 01:23:54;;;;;;;0.20;0.10;;;;;;;;;;6141198;23;20013;-84
2022/08/10 01:26:30;;;;;;;0.20;0.10;;;;;;;;;;6117081;23;20036;-85
2022/08/10 01:29:16;;;;;;;0.20;0.10;;;;;;;;;;6140808;23;20146;-87
2022/08/10 01:31:43;;;;;;;0.20;0.10;;;;;;;;;;6116148;23;20010;-86
2022/08/10 01:34:12;;;;;;;0.20;0.10;;;;;;;;;;6116269;23;20017;-85
2022/08/10 01:36:45;;;;;;;0.20;0.10;;;;;;;;;;6116324;23;20067;-88
2022/08/10 01:39:15;;;;;;;0.20;0.10;;;;;;;;;;6115751;23;20075;-85
2022/08/10 01:41:42;;;;;;;0.20;0.10;;;;;;;;;;6116558;23;20017;-84
2022/08/10 01:44:10;;;;;;;0.20;0.10;;;;;;;;;;6140911;23;20074;-84
2022/08/10 01:46:37;;;;;;;0.20;0.10;;;;;;;;;;6141128;23;20020;-85
2022/08/10 01:49:08;;;;;;;0.20;0.10;;;;;;;;;;6141692;23;20067;-84
2022/08/10 01:51:39;;;;;;;0.20;0.10;;;;;;;;;;6113734;23;20073;-84
2022/08/10 01:54:07;;;;;;;0.20;0.10;;;;;;;;;;6116386;23;20502;-82
2022/08/10 01:56:35;;;;;;;0.20;0.10;;;;;;;;;;6136440;23;20088;-85
2022/08/10 01:59:11;;;;;;;0.20;0.10;;;;;;;;;;6115809;23;20441;-84
2022/08/10 02:01:39;;;;;;;0.20;0.10;;;;;;;;;;6140073;23;20009;-83
2022/08/10 02:04:09;;;;;;;0.20;0.10;;;;;;;;;;6139822;23;20013;-83
2022/08/10 02:06:37;;;;;;;0.20;0.10;;;;;;;;;;6141065;23;20363;-83
2022/08/10 02:09:04;;;;;;;0.20;0.10;;;;;;;;;;6140302;23;20013;-83
2022/08/10 02:11:30;;;;;;;0.20;0.10;;;;;;;;;;6140984;23;20018;-84
2022/08/10 02:13:57;;;;;;;0.20;0.10;;;;;;;;;;6140100;23;20259;-85
2022/08/10 02:16:25;;;;;;;0.20;0.10;;;;;;;;;;6116671;23;20049;-84
2022/08/10 02:18:52;;;;;;;0.20;0.10;;;;;;;;;;6157355;22;20107;-87
2022/08/10 02:21:19;;;;;;;0.20;0.10;;;;;;;;;;6205391;22;20008;-86
2022/08/10 02:23:45;;;;;;;0.20;0.10;;;;;;;;;;6182034;23;20017;-85
2022/08/10 02:26:12;;;;;;;0.20;0.10;;;;;;;;;;6207075;23;20059;-84
2022/08/10 02:28:39;;;;;;;0.20;0.10;;;;;;;;;;6179033;23;20023;-85
2022/08/10 02:31:08;;;;;;;0.20;0.10;;;;;;;;;;6177561;23;20028;-84
2022/08/10 02:33:35;;;;;;;0.32;0.20;;;;;;;;;;6178780;22;20017;-86
2022/08/10 02:36:02;;;;;;;0.20;0.10;;;;;;;;;;6153320;23;20020;-86
2022/08/10 02:38:34;;;;;;;0.20;0.10;;;;;;;;;;6176756;22;20066;-87
2022/08/10 02:41:03;;;;;;;0.20;0.10;;;;;;;;;;6176874;22;20051;-85
2022/08/10 02:43:37;;;;;;;0.50;0.50;;;;;;;;;;6226202;22;20055;-86
2022/08/10 02:46:06;;;;;;;0.20;0.10;;;;;;;;;;6201399;22;20024;-85
2022/08/10 02:48:43;;;;;;;0.20;0.10;;;;;;;;;;6175183;22;20021;-84
2022/08/10 02:51:12;;;;;;;0.20;0.10;;;;;;;;;;6226820;22;20017;-83
2022/08/10 02:53:45;;;;;;;0.20;0.10;;;;;;;;;;6227153;22;20069;-86
2022/08/10 02:56:24;;;;;;;0.20;0.10;;;;;;;;;;6177813;23;20469;-85
2022/08/10 02:58:55;;;;;;;0.20;0.10;;;;;;;;;;6175117;23;20087;-85
2022/08/10 03:01:24;;;;;;;0.20;0.10;;;;;;;;;;6337459;22;20012;-85
2022/08/10 03:03:57;;;;;;;0.20;0.10;;;;;;;;;;6335747;22;20326;-85
2022/08/10 03:06:26;;;;;;;0.20;0.10;;;;;;;;;;6335105;22;20402;-85
2022/08/10 03:08:52;;;;;;;0.20;0.10;;;;;;;;;;6227114;22;20100;-85
2022/08/10 03:11:23;;;;;;;0.20;0.10;;;;;;;;;;6152930;22;20017;-85
2022/08/10 03:13:50;;;;;;;0.20;0.13;;;;;;;;;;6177994;22;20377;-85
2022/08/10 03:16:17;;;;;;;0.20;0.10;;;;;;;;;;6152228;22;20019;-86
2022/08/10 03:18:45;;;;;;;0.20;0.10;;;;;;;;;;6176572;22;20357;-85
2022/08/10 03:21:11;;;;;;;0.20;0.10;;;;;;;;;;6176900;22;20460;-86
2022/08/10 03:23:38;;;;;;;0.20;0.10;;;;;;;;;;6177182;22;20357;-86
2022/08/10 03:26:04;;;;;;;0.20;0.10;;;;;;;;;;6177785;22;20555;-85
2022/08/10 03:28:31;;;;;;;0.20;0.10;;;;;;;;;;6153083;22;20019;-87
2022/08/10 03:30:58;;;;;;;0.20;0.10;;;;;;;;;;6176609;22;20016;-85
2022/08/10 03:33:26;;;;;;;0.20;0.10;;;;;;;;;;6177988;22;20231;-86
2022/08/10 03:35:52;;;;;;;0.20;0.10;;;;;;;;;;6227994;22;20044;-86
2022/08/10 03:38:18;;;;;;;0.20;0.20;;;;;;;;;;6177980;22;20084;-85
2022/08/10 03:40:46;;;;;;;0.20;0.10;;;;;;;;;;6152632;23;20013;-85
2022/08/10 03:43:13;;;;;;;0.20;0.10;;;;;;;;;;6227543;22;20073;-86
2022/08/10 03:45:40;;;;;;;0.20;0.10;;;;;;;;;;6227401;22;20081;-86
2022/08/10 03:48:06;;;;;;;0.20;0.10;;;;;;;;;;6226503;22;20021;-85
2022/08/10 03:50:33;;;;;;;0.20;0.10;;;;;;;;;;6176903;22;20009;-86
2022/08/10 03:53:00;;;;;;;0.20;0.10;;;;;;;;;;6175767;22;20009;-86
2022/08/10 03:55:32;;;;;;;0.20;0.10;;;;;;;;;;6177156;22;20017;-85
2022/08/10 03:57:58;;;;;;;0.20;0.10;;;;;;;;;;6227582;22;20096;-87
2022/08/10 04:00:27;;;;;;;0.20;0.10;;;;;;;;;;6174802;22;20064;-85
2022/08/10 04:02:55;;;;;;;0.20;0.10;;;;;;;;;;6177604;22;20061;-88
2022/08/10 04:05:21;;;;;;;0.20;0.10;;;;;;;;;;6175541;22;20050;-86
2022/08/10 04:07:47;;;;;;;0.20;0.10;;;;;;;;;;6176528;22;20302;-85
2022/08/10 04:10:13;;;;;;;0.20;0.10;;;;;;;;;;6151746;22;20017;-88
2022/08/10 04:12:39;;;;;;;0.20;0.10;;;;;;;;;;6153441;23;20084;-86
2022/08/10 04:15:05;;;;;;;0.20;0.10;;;;;;;;;;6152381;23;20027;-87
2022/08/10 04:17:31;;;;;;;0.20;0.10;;;;;;;;;;6177568;22;20013;-89
2022/08/10 04:19:58;;;;;;;0.20;0.10;;;;;;;;;;6176845;23;20348;-89
2022/08/10 04:22:26;;;;;;;0.20;0.10;;;;;;;;;;6176894;22;20095;-86
2022/08/10 04:24:54;;;;;;;0.20;0.10;;;;;;;;;;6177216;22;20415;-87
2022/08/10 04:27:21;;;;;;;0.20;0.10;;;;;;;;;;6174989;22;20446;-85
2022/08/10 04:29:49;;;;;;;0.20;0.10;;;;;;;;;;6174679;22;20124;-85
2022/08/10 04:32:16;;;;;;;0.20;0.10;;;;;;;;;;6174728;23;20532;-86
2022/08/10 04:34:43;;;;;;;0.20;0.10;;;;;;;;;;6178928;22;20070;-85
2022/08/10 04:37:11;;;;;;;0.20;0.10;;;;;;;;;;6177532;22;20013;-86
2022/08/10 04:39:38;;;;;;;0.20;0.10;;;;;;;;;;6173408;23;20051;-87
2022/08/10 04:42:05;;;;;;;0.20;0.10;;;;;;;;;;6174669;22;20019;-87
2022/08/10 04:44:31;;;;;;;0.20;0.10;;;;;;;;;;6175365;22;20016;-86
2022/08/10 04:46:57;;;;;;;0.20;0.10;;;;;;;;;;6174623;23;20018;-90
2022/08/10 04:49:24;;;;;;;0.20;0.10;;;;;;;;;;6224891;22;20527;-89
2022/08/10 04:51:52;;;;;;;0.20;0.10;;;;;;;;;;6174014;22;20489;-86
2022/08/10 04:54:21;;;;;;;0.20;0.10;;;;;;;;;;6149699;22;20013;-87
2022/08/10 04:56:48;;;;;;;0.20;0.10;;;;;;;;;;6230155;22;20013;-86
2022/08/10 04:59:14;;;;;;;0.20;0.10;;;;;;;;;;6154422;22;20016;-86
2022/08/10 05:01:40;;;;;;;0.20;0.17;;;;;;;;;;6178666;22;20108;-86
2022/08/10 05:04:13;;;;;;;0.20;0.10;;;;;;;;;;6228401;22;20649;-88
2022/08/10 05:06:42;;;;;;;0.20;0.10;;;;;;;;;;6175730;23;20024;-85
2022/08/10 05:09:13;;;;;;;0.20;0.00;;;;;;;;;;6174717;22;20017;-87
2022/08/10 05:11:40;;;;;;;0.20;0.10;;;;;;;;;;6151160;22;20017;-85
2022/08/10 05:14:09;;;;;;;0.20;0.10;;;;;;;;;;6150176;22;20021;-86
2022/08/10 05:16:35;;;;;;;0.20;0.10;;;;;;;;;;6334150;22;20351;-88
2022/08/10 05:19:01;;;;;;;0.20;0.10;;;;;;;;;;6172905;23;20079;-90
2022/08/10 05:21:27;;;;;;;0.20;0.10;;;;;;;;;;6174602;22;20091;-88
2022/08/10 05:24:05;;;;;;;0.20;0.10;;;;;;;;;;6151315;22;20021;-87
2022/08/10 05:26:47;;;;;;;0.20;0.10;;;;;;;;;;6175543;22;20021;-87
2022/08/10 05:29:13;;;;;;;0.20;0.10;;;;;;;;;;6174951;23;20024;-88
2022/08/10 05:31:39;;;;;;;0.20;0.10;;;;;;;;;;6174565;22;20095;-86
2022/08/10 05:34:05;;;;;;;0.20;0.10;;;;;;;;;;6224592;22;20023;-86
2022/08/10 05:36:32;;;;;;;0.20;0.10;;;;;;;;;;6174711;22;20020;-86
2022/08/10 05:38:59;;;;;;;0.20;0.10;;;;;;;;;;6174457;23;20016;-87
2022/08/10 05:41:25;;;;;;;0.20;0.10;;;;;;;;;;6174641;22;20009;-85
2022/08/10 05:43:51;;;;;;;0.20;0.10;;;;;;;;;;6175468;22;20078;-84
2022/08/10 05:46:17;;;;;;;0.20;0.10;;;;;;;;;;6151566;22;20021;-88
2022/08/10 05:48:43;;;;;;;0.20;0.10;;;;;;;;;;6152202;23;20026;-87
2022/08/10 05:51:09;;;;;;;0.20;0.10;;;;;;;;;;6152108;23;20059;-84
2022/08/10 05:53:37;;;;;;;0.20;0.10;;;;;;;;;;6175330;22;20082;-90
2022/08/10 05:56:04;;;;;;;0.20;0.10;;;;;;;;;;6333639;22;20383;-86
2022/08/10 05:58:31;;;;;;;0.20;0.10;;;;;;;;;;6334004;22;20452;-84
2022/08/10 06:00:57;;;;;;;0.22;0.22;;;;;;;;;;6177196;22;20017;-87
2022/08/10 06:03:25;;;;;;;0.20;0.10;;;;;;;;;;6178515;22;20016;-85
2022/08/10 06:05:56;;;;;;;0.20;0.10;;;;;;;;;;6337297;22;20023;-87
2022/08/10 06:08:24;;;;;;;0.20;0.10;;;;;;;;;;6177437;23;20396;-87
2022/08/10 06:10:53;;;;;;;0.20;0.10;;;;;;;;;;6227040;22;20313;-88
2022/08/10 06:16:06;;;;;;;0.20;0.20;;;;;;;;;;6202043;22;20456;-91
2022/08/10 06:18:32;;;;;;;0.20;0.10;;;;;;;;;;6179264;22;20532;-86
2022/08/10 06:20:59;;;;;;;0.20;0.10;;;;;;;;;;6179983;22;20015;-84
2022/08/10 06:23:26;;;;;;;0.20;0.10;;;;;;;;;;6230540;22;20421;-85
2022/08/10 06:25:54;;;;;;;0.20;0.10;;;;;;;;;;6177970;22;20304;-85
2022/08/10 06:28:20;;;;;;;0.20;0.10;;;;;;;;;;6176946;23;20146;-85
2022/08/10 06:30:47;;;;;;;0.20;0.10;;;;;;;;;;6155046;23;20471;-86
2022/08/10 06:33:14;;;;;;;0.20;0.10;;;;;;;;;;6153865;22;20445;-85
2022/08/10 06:35:41;;;;;;;0.20;0.10;;;;;;;;;;6178213;22;20092;-86
2022/08/10 06:38:10;;;;;;;0.20;0.10;;;;;;;;;;6152545;22;20202;-86
2022/08/10 06:40:38;;;;;;;0.20;0.10;;;;;;;;;;6335318;22;20017;-87
2022/08/10 06:43:07;;;;;;;0.20;0.10;;;;;;;;;;6228316;22;20008;-87
2022/08/10 06:45:38;;;;;;;0.20;0.10;;;;;;;;;;6229238;22;20019;-86
2022/08/10 06:48:07;;;;;;;0.20;0.10;;;;;;;;;;6177079;22;20530;-84
2022/08/10 06:50:53;;;;;;;0.20;0.10;;;;;;;;;;6177321;23;20012;-85
2022/08/10 06:53:22;;;;;;;0.20;0.20;;;;;;;;;;6176652;23;20020;-87
2022/08/10 06:55:52;;;;;;;0.20;0.10;;;;;;;;;;6177048;22;20009;-89
2022/08/10 06:58:20;;;;;;;0.20;0.10;;;;;;;;;;6177820;22;20188;-85
2022/08/10 07:00:46;;;;;;;0.20;0.10;;;;;;;;;;6334350;22;20016;-85
2022/08/10 07:03:15;;;;;;;0.20;0.10;;;;;;;;;;6151602;23;20019;-84
2022/08/10 07:05:46;;;;;;;0.20;0.10;;;;;;;;;;6176997;22;20340;-86
2022/08/10 07:08:13;;;;;;;0.20;0.10;;;;;;;;;;6180353;23;20051;-85
2022/08/10 07:10:40;;;;;;;0.20;0.10;;;;;;;;;;6187962;22;20024;-85
2022/08/10 07:13:07;;;;;;;0.20;0.10;;;;;;;;;;6235212;22;20357;-86
2022/08/10 07:15:34;;;;;;;0.20;0.10;;;;;;;;;;6176575;22;20015;-86
2022/08/10 07:18:01;;;;;;;0.20;0.15;;;;;;;;;;6177906;23;20047;-85
2022/08/10 07:20:27;;;;;;;0.20;0.10;;;;;;;;;;6177968;22;20087;-84
2022/08/10 07:22:53;;;;;;;0.20;0.10;;;;;;;;;;6176572;22;20519;-85
2022/08/10 07:25:35;;;;;;;0.20;0.10;;;;;;;;;;6177378;23;20019;-84
2022/08/10 07:28:02;;;;;;;0.20;0.10;;;;;;;;;;6176318;23;20019;-85
2022/08/10 07:30:30;;;;;;;0.20;0.10;;;;;;;;;;6176970;22;20048;-85
2022/08/10 07:32:56;;;;;;;0.20;0.10;;;;;;;;;;6228314;22;20017;-87
2022/08/10 07:35:23;;;;;;;0.20;0.10;;;;;;;;;;6176723;22;20013;-87
2022/08/10 07:37:51;;;;;;;0.20;0.10;;;;;;;;;;6176296;23;20445;-83
2022/08/10 07:40:18;;;;;;;0.20;0.10;;;;;;;;;;6227981;22;20015;-85
2022/08/10 07:42:50;;;;;;;0.20;0.10;;;;;;;;;;6177536;22;20055;-85
2022/08/10 07:45:16;;;;;;;0.20;0.10;;;;;;;;;;6226603;22;20023;-87
2022/08/10 07:47:45;;;;;;;0.20;0.10;;;;;;;;;;6152188;22;20483;-86
2022/08/10 07:50:19;;;;;;;0.20;0.10;;;;;;;;;;6176953;22;20516;-87
2022/08/10 07:52:55;;;;;;;0.20;0.10;;;;;;;;;;6156408;23;20016;-86
2022/08/10 07:55:21;;;;;;;0.20;0.10;;;;;;;;;;6176658;22;20524;-86
2022/08/10 07:57:55;;;;;;;0.20;0.10;;;;;;;;;;6151709;22;20012;-87
2022/08/10 08:00:25;;;;;;;0.20;0.10;;;;;;;;;;6176121;22;20016;-84
2022/08/10 08:02:53;;;;;;;0.20;0.10;;;;;;;;;;6226589;22;20063;-85
2022/08/10 08:05:20;;;;;;;0.20;0.10;;;;;;;;;;6226425;22;20342;-85
2022/08/10 08:07:47;;;;;;;0.20;0.10;;;;;;;;;;6177143;22;20016;-82
2022/08/10 08:10:17;;;;;;;0.20;0.10;;;;;;;;;;6152089;22;20012;-86
2022/08/10 08:12:44;;;;;;;0.20;0.10;;;;;;;;;;6176362;23;20065;-86
2022/08/10 08:15:11;;;;;;;0.20;0.10;;;;;;;;;;6176114;23;20020;-85
2022/08/10 08:20:21;;;;;;;0.20;0.10;;;;;;;;;;6199646;23;20085;-84
2022/08/10 08:22:50;;;;;;;0.20;0.10;;;;;;;;;;6176490;22;20040;-85
2022/08/10 08:25:18;;;;;;;0.20;0.10;;;;;;;;;;6150954;23;20469;-85
2022/08/10 08:27:47;;;;;;;0.20;0.10;;;;;;;;;;6151577;22;20021;-85
2022/08/10 08:30:30;;;;;;;0.20;0.10;;;;;;;;;;6127466;23;20012;-85
2022/08/10 08:33:18;;;;;;;0.20;0.10;;;;;;;;;;6200308;22;20020;-87
2022/08/10 08:35:44;;;;;;;0.20;0.10;;;;;;;;;;6152145;22;20066;-85
2022/08/10 08:38:15;;;;;;;0.20;0.10;;;;;;;;;;6150556;23;20146;-85
2022/08/10 08:40:43;;;;;;;0.20;0.10;;;;;;;;;;6151354;23;20076;-84
2022/08/10 08:43:27;;;;;;;0.20;0.10;;;;;;;;;;6150889;23;20008;-85
2022/08/10 08:45:56;;;;;;;0.20;0.10;;;;;;;;;;6152059;23;20019;-86
2022/08/10 08:48:35;;;;;;;0.20;0.10;;;;;;;;;;6151017;22;20024;-85
2022/08/10 08:51:01;;;;;;;0.20;0.10;;;;;;;;;;6151407;23;20094;-86
2022/08/10 08:53:36;;;;;;;0.20;0.10;;;;;;;;;;6150864;23;20013;-84
2022/08/10 08:56:23;;;;;;;0.20;0.10;;;;;;;;;;6151123;23;20453;-85
2022/08/10 08:59:05;;;;;;;0.20;0.10;;;;;;;;;;6200523;23;20012;-87
2022/08/10 09:01:49;;;;;;;0.20;0.10;;;;;;;;;;6200196;23;20024;-85
2022/08/10 09:04:18;;;;;;;0.20;0.10;;;;;;;;;;6150170;23;20619;-85
2022/08/10 09:06:51;;;;;;;0.20;0.10;;;;;;;;;;6152537;23;20441;-87
2022/08/10 09:09:37;;;;;;;0.20;0.10;;;;;;;;;;6200721;23;20416;-87
2022/08/10 09:12:06;;;;;;;0.20;0.10;;;;;;;;;;6150873;23;20123;-86
2022/08/10 09:14:33;;;;;;;0.20;0.10;;;;;;;;;;6150554;23;20204;-86
2022/08/10 09:17:09;;;;;;;0.20;0.10;;;;;;;;;;6151503;23;20017;-86
2022/08/10 09:19:48;;;;;;;0.20;0.10;;;;;;;;;;6150909;23;20449;-86
2022/08/10 09:22:33;;;;;;;0.20;0.10;;;;;;;;;;6200685;23;20008;-83
2022/08/10 09:25:20;;;;;;;0.20;0.10;;;;;;;;;;6151126;22;20016;-84
2022/08/10 09:27:47;;;;;;;0.20;0.10;;;;;;;;;;6150993;23;20020;-85
2022/08/10 09:30:25;;;;;;;0.20;0.10;;;;;;;;;;6152187;23;20072;-85
2022/08/10 09:32:55;;;;;;;0.20;0.10;;;;;;;;;;6150673;23;20372;-86
2022/08/10 09:35:45;;;;;;;0.20;0.10;;;;;;;;;;6152321;23;20511;-85
2022/08/10 09:38:16;;;;;;;0.20;0.10;;;;;;;;;;6203138;23;20021;-85
2022/08/10 09:41:01;;;;;;;0.20;0.10;;;;;;;;;;6151648;23;20092;-86
2022/08/10 09:43:27;;;;;;;0.20;0.10;;;;;;;;;;6202221;23;20025;-84
2022/08/10 09:45:56;;;;;;;0.20;0.10;;;;;;;;;;6152448;23;20279;-86
2022/08/10 09:48:35;;;;;;;0.20;0.10;;;;;;;;;;6152047;23;20092;-86
2022/08/10 09:51:20;;;;;;;0.20;0.10;;;;;;;;;;6152295;23;20407;-85
2022/08/10 09:54:06;;;;;;;0.20;0.10;;;;;;;;;;6153942;23;20013;-85
2022/08/10 09:56:51;;;;;;;0.20;0.10;;;;;;;;;;6153991;23;20013;-86
2022/08/10 09:59:47;;;;;;;0.20;0.10;;;;;;;;;;6152312;23;20009;-84
2022/08/10 10:02:33;;;;;;;0.20;0.10;;;;;;;;;;6202637;22;20023;-87
2022/08/10 10:05:02;;;;;;;0.20;0.10;;;;;;;;;;6153214;23;20020;-84
2022/08/10 10:07:28;;;;;;;0.20;0.10;;;;;;;;;;6152359;23;20117;-84
2022/08/10 10:10:08;;;;;;;0.20;0.10;;;;;;;;;;6127191;23;20023;-88
2022/08/10 10:12:40;;;;;;;0.20;0.10;;;;;;;;;;6201474;23;20333;-85
2022/08/10 10:15:26;;;;;;;0.20;0.10;;;;;;;;;;6202549;23;20012;-88
2022/08/10 10:18:13;;;;;;;0.20;0.10;;;;;;;;;;6201581;22;20427;-87
2022/08/10 10:21:01;;;;;;;0.20;0.10;;;;;;;;;;6202077;23;20009;-87
2022/08/10 10:23:46;;;;;;;0.20;0.10;;;;;;;;;;6151783;23;20364;-84
2022/08/10 10:26:19;;;;;;;0.20;0.10;;;;;;;;;;6202284;22;20020;-86
2022/08/10 10:28:59;;;;;;;0.20;0.10;;;;;;;;;;6202669;22;20274;-86
2022/08/10 10:31:31;;;;;;;0.20;0.10;;;;;;;;;;6152030;23;20056;-86
2022/08/10 10:34:12;;;;;;;0.20;0.10;;;;;;;;;;6202126;23;20020;-85
2022/08/10 10:36:40;;;;;;;0.20;0.10;;;;;;;;;;6201179;23;20019;-85
2022/08/10 10:39:07;;;;;;;0.20;0.10;;;;;;;;;;6152563;23;20008;-85
2022/08/10 10:41:41;;;;;;;0.20;0.10;;;;;;;;;;6176094;23;20016;-86
2022/08/10 10:44:08;;;;;;;0.20;0.10;;;;;;;;;;6201087;23;20480;-85
2022/08/10 10:46:49;;;;;;;0.20;0.10;;;;;;;;;;6202532;22;20092;-85
2022/08/10 10:49:15;;;;;;;0.20;0.10;;;;;;;;;;6151615;22;20016;-88
2022/08/10 10:51:51;;;;;;;0.20;0.10;;;;;;;;;;6153017;22;20023;-86
2022/08/10 10:54:36;;;;;;;0.20;0.10;;;;;;;;;;6151308;23;20782;-85
2022/08/10 10:57:05;;;;;;;0.20;0.10;;;;;;;;;;6152041;23;20012;-84
2022/08/10 10:59:42;;;;;;;0.20;0.10;;;;;;;;;;6202461;23;20016;-85
2022/08/10 11:02:31;;;;;;;0.20;0.10;;;;;;;;;;6152065;23;20104;-87
2022/08/10 11:05:15;;;;;;;0.20;0.10;;;;;;;;;;6201648;22;20023;-85
2022/08/10 11:07:46;;;;;;;0.20;0.10;;;;;;;;;;6152355;23;20400;-86
2022/08/10 11:10:18;;;;;;;0.20;0.10;;;;;;;;;;6202012;23;20016;-90
2022/08/10 11:12:51;;;;;;;0.20;0.10;;;;;;;;;;6202260;23;20016;-85
2022/08/10 11:15:37;;;;;;;0.20;0.10;;;;;;;;;;6153189;23;20263;-85
2022/08/10 11:18:08;;;;;;;0.20;0.10;;;;;;;;;;6151840;23;20013;-86
2022/08/10 11:20:40;;;;;;;0.20;0.10;;;;;;;;;;6201622;23;20020;-88
2022/08/10 11:23:06;;;;;;;;;;;;;;;;;;6202754;23;20009;-86
2022/08/10 11:25:35;;;;;;;0.20;0.10;;;;;;;;;;6177076;23;20303;-85
2022/08/10 11:28:04;;;;;;;0.20;0.10;;;;;;;;;;6152077;23;20032;-85
2022/08/10 11:30:39;;;;;;;0.20;0.10;;;;;;;;;;6152575;23;20017;-85
2022/08/10 11:33:14;;;;;;;0.20;0.10;;;;;;;;;;6153023;23;20016;-85
2022/08/10 11:35:44;;;;;;;0.20;0.10;;;;;;;;;;6201560;23;20025;-86
2022/08/10 11:38:10;;;;;;;0.20;0.10;;;;;;;;;;6200760;23;20013;-86
2022/08/10 11:40:48;;;;;;;0.20;0.10;;;;;;;;;;6151573;23;20071;-85
2022/08/10 11:43:25;;;;;;;0.20;0.10;;;;;;;;;;6201347;23;20009;-86
2022/08/10 11:46:14;;;;;;;0.20;0.10;;;;;;;;;;6150799;23;20016;-86
2022/08/10 11:48:47;;;;;;;0.20;0.10;;;;;;;;;;6177393;23;20019;-85
2022/08/10 11:51:33;;;;;;;0.20;0.10;;;;;;;;;;6152509;23;20019;-85
2022/08/10 11:54:14;;;;;;;0.20;0.10;;;;;;;;;;6175680;22;20013;-89
2022/08/10 11:56:46;;;;;;;0.20;0.10;;;;;;;;;;6201793;23;20338;-87
2022/08/10 12:01:58;;;;;;;0.20;0.10;;;;;;;;;;6175755;23;20016;-87
2022/08/10 12:04:25;;;;;;;0.20;0.10;;;;;;;;;;6150942;23;20023;-86
2022/08/10 12:06:52;;;;;;;0.20;0.10;;;;;;;;;;6151895;23;20023;-85
2022/08/10 12:09:19;;;;;;;0.20;0.20;;;;;;;;;;6202305;22;20100;-85
2022/08/10 12:11:47;;;;;;;0.20;0.10;;;;;;;;;;6151790;22;20104;-86
2022/08/10 12:14:23;;;;;;;0.20;0.10;;;;;;;;;;6201631;22;20024;-86
2022/08/10 12:16:51;;;;;;;0.20;0.10;;;;;;;;;;6201689;23;20017;-86
2022/08/10 12:19:26;;;;;;;0.20;0.10;;;;;;;;;;6150787;23;20044;-85
2022/08/10 12:22:00;;;;;;;0.20;0.10;;;;;;;;;;6151383;23;20362;-86
2022/08/10 12:24:46;;;;;;;0.20;0.10;;;;;;;;;;6202262;22;20019;-85
2022/08/10 12:27:17;;;;;;;0.20;0.10;;;;;;;;;;6201163;22;20453;-85
2022/08/10 12:29:47;;;;;;;0.20;0.10;;;;;;;;;;6202235;23;20095;-85
2022/08/10 12:32:19;;;;;;;0.20;0.10;;;;;;;;;;6151956;23;20028;-88
2022/08/10 12:34:56;;;;;;;0.20;0.10;;;;;;;;;;6201199;22;20017;-85
2022/08/10 12:37:41;;;;;;;0.20;0.10;;;;;;;;;;6151626;23;20023;-84
2022/08/10 12:40:13;;;;;;;0.20;0.10;;;;;;;;;;6176367;23;20427;-86
2022/08/10 12:42:39;;;;;;;;;;;;;;;;;;6151749;23;20009;-85
2022/08/10 12:45:09;;;;;;;0.20;0.10;;;;;;;;;;6177084;23;20045;-84
2022/08/10 12:47:58;;;;;;;0.20;0.10;;;;;;;;;;6153589;23;20407;-89
2022/08/10 12:50:30;;;;;;;0.20;0.10;;;;;;;;;;6178106;23;20020;-85
2022/08/10 12:52:56;;;;;;;;;;;;;;;;;;6202314;23;20021;-86
2022/08/10 12:55:23;;;;;;;0.20;0.10;;;;;;;;;;6175815;23;19919;-85
2022/08/10 12:57:51;;;;;;;0.20;0.10;;;;;;;;;;6200178;23;20020;-85
2022/08/10 13:00:18;;;;;;;0.20;0.10;;;;;;;;;;6196932;23;20407;-84
2022/08/10 13:02:44;;;;;;;0.20;0.10;;;;;;;;;;6127145;23;20008;-86
2022/08/10 13:05:12;;;;;;;0.20;0.10;;;;;;;;;;6201471;23;20021;-86
2022/08/10 13:09:07;;;;;;;0.20;0.10;;;;;;;;;;6150322;23;20469;-85
2022/08/10 13:10:41;;;;;;;0.20;0.10;;;;;;;;;;6175750;23;20020;-84
2022/08/10 13:13:07;;;;;;;0.20;0.10;;;;;;;;;;6202143;23;20024;-85
2022/08/10 13:15:35;;;;;;;0.20;0.10;;;;;;;;;;6201933;23;20564;-84
2022/08/10 13:18:03;;;;;;;0.20;0.10;;;;;;;;;;6200503;22;20082;-86
2022/08/10 13:20:30;;;;;;;0.20;0.10;;;;;;;;;;6151933;23;20133;-84
2022/08/10 13:22:58;;;;;;;0.20;0.10;;;;;;;;;;6152412;22;20400;-85
2022/08/10 13:25:50;;;;;;;0.20;0.10;;;;;;;;;;6151802;23;20507;-84
2022/08/10 13:28:16;;;;;;;;;;;;;;;;;;6176837;23;20338;-86
2022/08/10 13:30:45;;;;;;;0.20;0.10;;;;;;;;;;6175906;23;19923;-84
2022/08/10 13:33:13;;;;;;;0.20;0.10;;;;;;;;;;6151211;23;20158;-87
2022/08/10 13:35:43;;;;;;;0.20;0.10;;;;;;;;;;6151169;23;20020;-87
2022/08/10 13:38:09;;;;;;;0.20;0.10;;;;;;;;;;6151421;23;20021;-85
2022/08/10 13:40:36;;;;;;;0.20;0.10;;;;;;;;;;6201584;23;20020;-84
2022/08/10 13:43:05;;;;;;;0.20;0.10;;;;;;;;;;6176419;23;20547;-86
2022/08/10 13:45:31;;;;;;;0.20;0.10;;;;;;;;;;6151446;22;20020;-85
2022/08/10 13:48:19;;;;;;;0.20;0.10;;;;;;;;;;6127386;23;20044;-84
2022/08/10 13:50:46;;;;;;;0.20;0.10;;;;;;;;;;6151057;23;20017;-85
2022/08/10 13:53:13;;;;;;;0.20;0.10;;;;;;;;;;6201048;23;20015;-85
2022/08/10 13:55:45;;;;;;;0.20;0.10;;;;;;;;;;6150894;23;20435;-85
2022/08/10 13:58:12;;;;;;;0.20;0.10;;;;;;;;;;6200338;23;20052;-86
2022/08/10 14:00:39;;;;;;;0.20;0.10;;;;;;;;;;6150562;23;20016;-85
2022/08/10 14:03:09;;;;;;;0.20;0.10;;;;;;;;;;6200849;23;20410;-84
2022/08/10 14:05:37;;;;;;;0.20;0.10;;;;;;;;;;6200312;22;20020;-84
2022/08/10 14:08:04;;;;;;;0.20;0.10;;;;;;;;;;6151731;23;20027;-85
2022/08/10 14:10:39;;;;;;;0.20;0.10;;;;;;;;;;6151503;23;20013;-86
2022/08/10 14:13:05;;;;;;;0.20;0.10;;;;;;;;;;6151105;23;20012;-83
2022/08/10 14:15:32;;;;;;;0.20;0.10;;;;;;;;;;6150591;23;20013;-83
2022/08/10 14:20:38;;;;;;;0.20;0.10;;;;;;;;;;6364077;22;20077;-86
2022/08/10 14:23:06;;;;;;;0.20;0.10;;;;;;;;;;6310177;22;20010;-83
2022/08/10 14:25:33;;;;;;;0.20;0.10;;;;;;;;;;6332989;22;20329;-85
2022/08/10 14:28:00;;;;;;;0.20;0.10;;;;;;;;;;6334540;22;20018;-84
2022/08/10 14:30:28;;;;;;;0.20;0.10;;;;;;;;;;6308779;22;20125;-82
2022/08/10 14:32:55;;;;;;;0.20;0.10;;;;;;;;;;6307106;22;20018;-90
2022/08/10 14:35:22;;;;;;;0.20;0.10;;;;;;;;;;6280718;22;20366;-87
2022/08/10 14:37:57;;;;;;;0.20;0.10;;;;;;;;;;6309703;22;20067;-86
2022/08/10 14:40:27;;;;;;;0.20;0.10;;;;;;;;;;6310627;22;20090;-85
2022/08/10 14:43:13;;;;;;;0.20;0.10;;;;;;;;;;6311131;22;20029;-84
2022/08/10 14:45:41;;;;;;;0.20;0.10;;;;;;;;;;6335880;22;20045;-87
2022/08/10 14:48:10;;;;;;;0.20;0.10;;;;;;;;;;6311322;22;20014;-85
2022/08/10 14:50:36;;;;;;;0.20;0.10;;;;;;;;;;6309026;22;20018;-88
2022/08/10 14:53:13;;;;;;;0.20;0.10;;;;;;;;;;6308624;22;20442;-86
2022/08/10 14:55:45;;;;;;;0.20;0.10;;;;;;;;;;6310286;22;20018;-87
2022/08/10 14:58:16;;;;;;;0.20;0.10;;;;;;;;;;6309813;22;20350;-85
2022/08/10 15:00:44;;;;;;;0.20;0.10;;;;;;;;;;6363393;22;20114;-84
2022/08/10 15:03:14;;;;;;;0.20;0.10;;;;;;;;;;6309705;22;20353;-86
2022/08/10 15:05:41;;;;;;;0.20;0.10;;;;;;;;;;6310253;22;20093;-84
2022/08/10 15:08:10;;;;;;;0.20;0.10;;;;;;;;;;6310403;22;20017;-84
2022/08/10 15:10:37;;;;;;;0.20;0.10;;;;;;;;;;6309335;22;20048;-85
2022/08/10 15:13:09;;;;;;;0.20;0.10;;;;;;;;;;6361780;22;20014;-84